createdAt,value
2019-04-23T00:00:23.578Z,15.00
2019-04-23T00:02:44.397Z,15.24
2019-04-23T00:05:27.246Z,14.69
2019-04-23T00:10:25.659Z,14.91
2019-04-23T00:13:02.275Z,15.09
2019-04-23T00:15:26.633Z,14.95
2019-04-23T00:18:00.463Z,15.56
2019-04-23T00:20:32.470Z,14.91
2019-04-23T00:23:11.423Z,14.49
2019-04-23T00:25:53.772Z,14.61
2019-04-23T00:28:31.382Z,14.55
2019-04-23T00:30:58.189Z,14.78
2019-04-23T00:35:55.239Z,14.94
2019-04-23T00:38:33.909Z,14.89
2019-04-23T00:41:02.840Z,15.45
2019-04-23T00:45:59.418Z,14.43
2019-04-23T00:48:45.596Z,14.49
2019-04-23T00:51:01.997Z,14.54
2019-04-23T00:53:37.146Z,14.32
2019-04-23T00:56:26.702Z,14.74
2019-04-23T01:01:11.141Z,14.50
2019-04-23T01:03:48.577Z,14.62
2019-04-23T01:06:21.046Z,14.77
2019-04-23T01:08:50.860Z,14.12
2019-04-23T01:11:20.430Z,14.12
2019-04-23T01:16:22.807Z,14.76
2019-04-23T01:19:33.667Z,14.66
2019-04-23T01:21:43.287Z,14.43
2019-04-23T01:24:32.477Z,14.02
2019-04-23T01:28:04.247Z,14.32
2019-04-23T01:30:13.978Z,14.22
2019-04-23T01:32:44.103Z,14.12
2019-04-23T01:35:20.353Z,14.60
2019-04-23T01:37:47.702Z,14.11
2019-04-23T01:40:28.922Z,14.27
2019-04-23T01:42:49.328Z,14.51
2019-04-23T01:45:25.960Z,14.14
2019-04-23T01:47:54.923Z,14.14
2019-04-23T01:53:12.290Z,13.64
2019-04-23T01:55:36.207Z,13.65
2019-04-23T01:58:20.560Z,13.72
2019-04-23T02:03:09.386Z,13.87
2019-04-23T02:05:41.334Z,13.59
2019-04-23T02:08:15.659Z,14.32
2019-04-23T02:10:53.629Z,13.75
2019-04-23T02:13:27.248Z,13.81
2019-04-23T02:16:06.716Z,13.97
2019-04-23T02:18:20.591Z,13.57
2019-04-23T02:21:00.695Z,13.28
2019-04-23T02:23:46.401Z,13.71
2019-04-23T02:26:12.895Z,13.96
2019-04-23T02:28:55.761Z,13.42
2019-04-23T02:31:35.795Z,13.97
2019-04-23T02:34:00.614Z,13.34
2019-04-23T02:36:25.805Z,13.44
2019-04-23T02:39:00.967Z,13.54
2019-04-23T02:41:41.383Z,13.79
2019-04-23T02:44:04.840Z,13.54
2019-04-23T02:46:54.265Z,13.19
2019-04-23T02:49:04.967Z,13.50
2019-04-23T02:51:35.271Z,13.69
2019-04-23T02:54:08.571Z,13.49
2019-04-23T02:56:51.083Z,13.35
2019-04-23T03:02:09.506Z,13.28
2019-04-23T03:04:17.476Z,13.01
2019-04-23T03:06:45.943Z,12.87
2019-04-23T03:09:23.612Z,13.10
2019-04-23T03:11:52.249Z,12.95
2019-04-23T03:14:29.093Z,13.36
2019-04-23T03:17:00.271Z,12.98
2019-04-23T03:22:26.372Z,12.94
2019-04-23T03:25:12.931Z,13.00
2019-04-23T03:27:37.406Z,12.62
2019-04-23T03:30:16.271Z,12.75
2019-04-23T03:35:55.168Z,13.10
2019-04-23T03:40:13.824Z,12.81
2019-04-23T03:42:47.688Z,12.85
2019-04-23T03:45:25.554Z,12.79
2019-04-23T03:47:48.999Z,12.93
2019-04-23T03:50:37.096Z,12.82
2019-04-23T03:52:51.049Z,12.84
2019-04-23T03:57:52.362Z,12.56
2019-04-23T04:00:39.733Z,12.78
2019-04-23T04:03:10.835Z,12.76
2019-04-23T04:05:40.035Z,13.07
2019-04-23T04:08:20.273Z,13.01
2019-04-23T04:10:50.332Z,12.72
2019-04-23T04:13:07.014Z,13.18
2019-04-23T04:20:49.341Z,12.62
2019-04-23T04:23:22.689Z,12.52
2019-04-23T04:25:48.691Z,12.83
2019-04-23T04:28:28.842Z,12.78
2019-04-23T04:31:10.036Z,13.11
2019-04-23T04:36:01.011Z,13.09
2019-04-23T04:41:01.230Z,12.74
2019-04-23T04:43:47.600Z,12.68
2019-04-23T04:46:14.901Z,12.36
2019-04-23T04:48:56.500Z,12.92
2019-04-23T04:56:16.770Z,12.46
2019-04-23T05:01:13.802Z,12.45
2019-04-23T05:03:57.913Z,12.85
2019-04-23T05:16:19.312Z,12.62
2019-04-23T05:19:02.583Z,12.78
2019-04-23T05:21:26.938Z,12.95
2019-04-23T05:26:30.375Z,12.67
2019-04-23T05:29:04.825Z,13.01
2019-04-23T05:31:45.038Z,12.86
2019-04-23T05:41:36.862Z,13.42
2019-04-23T05:44:17.163Z,13.40
2019-04-23T05:46:36.642Z,13.58
2019-04-23T05:49:10.942Z,12.76
2019-04-23T05:51:50.887Z,13.28
2019-04-23T05:54:19.089Z,13.36
2019-04-23T05:56:49.017Z,14.10
2019-04-23T05:59:18.146Z,13.36
2019-04-23T06:04:24.619Z,14.35
2019-04-23T06:09:25.310Z,13.52
2019-04-23T06:14:32.932Z,13.18
2019-04-23T06:17:04.659Z,13.06
2019-04-23T06:19:24.704Z,13.12
2019-04-23T06:24:55.166Z,12.91
2019-04-23T06:27:13.565Z,13.38
2019-04-23T06:29:44.947Z,14.07
2019-04-23T06:32:13.214Z,14.31
2019-04-23T06:34:41.177Z,13.27
2019-04-23T06:37:18.428Z,13.43
2019-04-23T06:39:48.298Z,13.77
2019-04-23T06:42:17.687Z,13.83
2019-04-23T06:47:23.527Z,13.28
2019-04-23T06:49:55.681Z,13.25
2019-04-23T06:52:30.176Z,13.44
2019-04-23T06:55:01.170Z,13.39
2019-04-23T06:57:27.084Z,13.69
2019-04-23T07:02:39.222Z,13.60
2019-04-23T07:05:12.162Z,13.59
2019-04-23T07:10:16.575Z,13.63
2019-04-23T07:12:42.968Z,13.37
2019-04-23T07:15:30.864Z,13.74
2019-04-23T07:17:46.169Z,13.72
2019-04-23T07:22:49.982Z,13.93
2019-04-23T07:25:22.105Z,14.53
2019-04-23T07:27:47.378Z,14.86
2019-04-23T07:32:57.158Z,14.09
2019-04-23T07:35:21.201Z,13.96
2019-04-23T07:38:09.283Z,14.39
2019-04-23T07:40:54.378Z,14.37
2019-04-23T07:43:46.238Z,14.13
2019-04-23T07:46:30.646Z,14.39
2019-04-23T07:48:49.131Z,14.34
2019-04-23T07:51:27.703Z,14.29
2019-04-23T07:54:06.273Z,14.23
2019-04-23T07:56:31.870Z,14.38
2019-04-23T07:59:05.749Z,14.39
2019-04-23T08:01:29.755Z,14.47
2019-04-23T08:04:01.825Z,15.00
2019-04-23T08:06:29.657Z,14.75
2019-04-23T08:09:10.952Z,14.91
2019-04-23T08:14:30.150Z,14.42
2019-04-23T08:19:16.989Z,14.80
2019-04-23T08:21:43.882Z,14.73
2019-04-23T08:24:48.612Z,14.66
2019-04-23T08:27:18.192Z,14.54
2019-04-23T08:29:44.517Z,15.01
2019-04-23T08:32:29.499Z,15.13
2019-04-23T08:35:10.915Z,15.39
2019-04-23T08:37:58.468Z,15.40
2019-04-23T08:39:52.663Z,15.45
2019-04-23T08:42:42.773Z,15.70
2019-04-23T08:45:29.631Z,15.90
2019-04-23T08:48:21.531Z,15.44
2019-04-23T08:51:07.478Z,15.30
2019-04-23T08:55:50.143Z,15.56
2019-04-23T09:03:27.684Z,16.10
2019-04-23T09:05:57.686Z,16.20
2019-04-23T09:11:04.684Z,16.40
2019-04-23T09:16:08.660Z,16.27
2019-04-23T09:18:32.714Z,16.28
2019-04-23T09:21:07.347Z,15.98
2019-04-23T09:23:39.174Z,16.47
2019-04-23T09:26:20.564Z,16.21
2019-04-23T09:28:46.356Z,16.25
2019-04-23T09:31:45.592Z,15.94
2019-04-23T09:34:29.785Z,15.92
2019-04-23T09:36:59.896Z,16.08
2019-04-23T09:39:43.296Z,16.08
2019-04-23T09:42:25.670Z,16.47
2019-04-23T09:45:23.282Z,16.52
2019-04-23T09:53:17.089Z,16.41
2019-04-23T09:55:41.697Z,16.37
2019-04-23T09:58:21.864Z,16.50
2019-04-23T10:01:09.857Z,17.01
2019-04-23T10:03:09.188Z,17.10
2019-04-23T10:05:39.116Z,17.01
2019-04-23T10:08:10.754Z,17.01
2019-04-23T10:10:32.244Z,16.65
2019-04-23T10:13:04.073Z,17.05
2019-04-23T10:15:38.842Z,17.09
2019-04-23T10:18:05.987Z,17.26
2019-04-23T10:20:36.394Z,17.09
2019-04-23T10:23:06.364Z,17.35
2019-04-23T10:25:38.237Z,17.19
2019-04-23T10:28:16.716Z,17.40
2019-04-23T10:30:46.854Z,17.00
2019-04-23T10:33:16.799Z,17.14
2019-04-23T10:35:56.441Z,17.07
2019-04-23T10:38:20.341Z,17.21
2019-04-23T10:40:50.811Z,17.45
2019-04-23T10:43:22.667Z,17.35
2019-04-23T10:46:32.556Z,17.39
2019-04-23T10:52:04.175Z,17.41
2019-04-23T10:54:35.833Z,17.63
2019-04-23T10:56:59.019Z,17.52
2019-04-23T11:02:36.354Z,17.96
2019-04-23T11:04:53.712Z,17.84
2019-04-23T11:07:28.711Z,17.60
2019-04-23T11:12:37.590Z,17.77
2019-04-23T11:15:26.994Z,17.80
2019-04-23T11:17:50.066Z,17.80
2019-04-23T11:20:30.294Z,17.82
2019-04-23T11:25:31.516Z,18.38
2019-04-23T11:28:05.639Z,18.28
2019-04-23T11:35:50.480Z,18.32
2019-04-23T11:38:35.589Z,18.34
2019-04-23T11:40:37.086Z,18.39
2019-04-23T11:45:59.197Z,18.18
2019-04-23T11:53:26.080Z,18.86
2019-04-23T11:55:55.625Z,18.55
2019-04-23T11:58:29.796Z,18.84
2019-04-23T12:01:38.665Z,19.05
2019-04-23T12:04:05.414Z,18.98
2019-04-23T12:06:47.823Z,19.11
2019-04-23T12:09:34.849Z,18.97
2019-04-23T12:17:20.385Z,18.99
2019-04-23T12:20:33.757Z,18.89
2019-04-23T12:22:21.624Z,19.08
2019-04-23T12:27:27.543Z,19.26
2019-04-23T12:29:57.572Z,19.70
2019-04-23T12:37:44.873Z,19.20
2019-04-23T12:45:26.841Z,19.29
2019-04-23T12:53:05.733Z,19.16
2019-04-23T12:58:01.322Z,19.37
2019-04-23T13:03:08.542Z,19.76
2019-04-23T13:05:57.535Z,19.15
2019-04-23T13:08:33.718Z,19.37
2019-04-23T13:10:57.686Z,19.36
2019-04-23T13:13:48.747Z,19.54
2019-04-23T13:16:04.680Z,19.41
2019-04-23T13:21:14.226Z,19.53
2019-04-23T13:23:34.847Z,19.28
2019-04-23T13:26:04.040Z,19.69
2019-04-23T13:33:58.044Z,19.56
2019-04-23T13:36:24.386Z,19.65
2019-04-23T13:38:47.282Z,19.57
2019-04-23T13:41:23.140Z,19.93
2019-04-23T13:44:02.665Z,19.50
2019-04-23T13:46:28.823Z,19.65
2019-04-23T13:48:58.681Z,19.35
2019-04-23T13:51:39.470Z,19.47
2019-04-23T13:54:07.889Z,19.50
2019-04-23T13:59:31.410Z,19.59
2019-04-23T14:01:54.434Z,20.19
2019-04-23T14:06:53.424Z,19.71
2019-04-23T14:09:41.830Z,19.77
2019-04-23T14:11:55.003Z,19.07
2019-04-23T14:14:41.390Z,19.42
2019-04-23T14:17:11.505Z,19.25
2019-04-23T14:19:41.830Z,19.46
2019-04-23T14:22:21.231Z,20.33
2019-04-23T14:27:14.909Z,19.08
2019-04-23T14:29:48.159Z,18.97
2019-04-23T14:32:23.357Z,19.03
2019-04-23T14:34:54.705Z,19.16
2019-04-23T14:37:18.177Z,18.99
2019-04-23T14:39:56.027Z,19.25
2019-04-23T14:42:30.929Z,19.30
2019-04-23T14:45:09.832Z,19.04
2019-04-23T14:47:27.977Z,19.01
2019-04-23T14:50:24.310Z,19.17
2019-04-23T14:52:41.295Z,19.50
2019-04-23T14:58:07.122Z,19.38
2019-04-23T15:00:23.479Z,19.51
2019-04-23T15:02:51.863Z,19.07
2019-04-23T15:05:20.244Z,19.17
2019-04-23T15:07:50.705Z,19.49
2019-04-23T15:13:01.601Z,18.88
2019-04-23T15:15:33.966Z,18.55
2019-04-23T15:18:09.843Z,18.75
2019-04-23T15:20:50.306Z,18.76
2019-04-23T15:26:22.619Z,18.46
2019-04-23T15:28:07.533Z,18.24
2019-04-23T15:31:02.740Z,18.27
2019-04-23T15:33:35.381Z,18.25
2019-04-23T15:36:27.447Z,18.14
2019-04-23T15:41:15.288Z,17.96
2019-04-23T15:43:52.242Z,18.07
2019-04-23T15:46:25.327Z,17.87
2019-04-23T15:49:01.116Z,18.02
2019-04-23T15:51:30.587Z,17.90
2019-04-23T15:53:56.643Z,18.06
2019-04-23T15:56:35.818Z,18.35
2019-04-23T16:01:34.528Z,18.07
2019-04-23T16:03:33.885Z,17.98
2019-04-23T16:06:04.781Z,18.03
2019-04-23T16:16:55.747Z,17.94
2019-04-23T16:24:26.563Z,17.95
2019-04-23T16:27:01.599Z,17.95
2019-04-23T16:32:08.522Z,17.85
2019-04-23T16:34:54.144Z,17.85
2019-04-23T16:37:27.349Z,17.84
2019-04-23T16:40:01.871Z,17.94
2019-04-23T16:42:29.587Z,17.68
2019-04-23T16:48:15.781Z,17.26
2019-04-23T16:50:57.395Z,17.80
2019-04-23T16:53:16.144Z,17.46
2019-04-23T16:58:22.243Z,17.53
2019-04-23T17:03:29.038Z,17.38
2019-04-23T17:13:29.223Z,17.42
2019-04-23T17:16:06.682Z,17.09
2019-04-23T17:18:31.886Z,17.28
2019-04-23T17:20:56.012Z,17.26
2019-04-23T17:26:04.078Z,16.84
2019-04-23T17:28:54.302Z,16.92
2019-04-23T17:31:27.917Z,17.60
2019-04-23T17:33:43.764Z,17.32
2019-04-23T17:39:02.809Z,17.06
2019-04-23T17:41:41.791Z,16.92
2019-04-23T17:44:21.934Z,16.89
2019-04-23T17:49:15.281Z,17.04
2019-04-23T17:51:42.309Z,17.22
2019-04-23T17:54:17.379Z,17.28
2019-04-23T17:56:55.990Z,16.94
2019-04-23T17:59:20.476Z,17.05
2019-04-23T18:02:08.247Z,17.15
2019-04-23T18:04:29.535Z,17.17
2019-04-23T18:06:56.061Z,17.42
2019-04-23T18:12:00.837Z,17.49
2019-04-23T18:14:28.268Z,17.04
2019-04-23T18:17:24.282Z,17.52
2019-04-23T18:19:32.420Z,17.47
2019-04-23T18:22:35.583Z,17.33
2019-04-23T18:25:37.537Z,17.31
2019-04-23T18:36:09.835Z,17.58
2019-04-23T18:41:17.050Z,17.65
2019-04-23T18:43:50.754Z,17.69
2019-04-23T18:46:35.606Z,17.30
2019-04-23T18:49:11.301Z,17.47
2019-04-23T18:51:55.079Z,17.66
2019-04-23T18:54:28.525Z,17.45
2019-04-23T18:59:37.166Z,17.88
2019-04-23T19:02:27.504Z,17.43
2019-04-23T19:05:08.724Z,18.25
2019-04-23T19:07:59.331Z,17.79
2019-04-23T19:13:07.091Z,17.92
2019-04-23T19:15:38.174Z,18.56
2019-04-23T19:18:23.316Z,17.96
2019-04-23T19:23:25.554Z,18.35
2019-04-23T19:25:51.867Z,19.01
2019-04-23T19:28:42.664Z,18.78
2019-04-23T19:34:13.898Z,18.03
2019-04-23T19:39:17.804Z,17.80
2019-04-23T19:46:58.201Z,18.40
2019-04-23T19:51:59.485Z,18.11
2019-04-23T19:54:47.695Z,18.64
2019-04-23T19:57:09.262Z,18.42
2019-04-23T20:02:22.884Z,19.44
2019-04-23T20:04:45.941Z,18.40
2019-04-23T20:07:22.779Z,18.09
2019-04-23T20:09:51.637Z,18.69
2019-04-23T20:12:25.355Z,18.48
2019-04-23T20:14:56.188Z,19.10
2019-04-23T20:20:00.894Z,18.46
2019-04-23T20:22:41.768Z,17.90
2019-04-23T20:30:55.096Z,17.52
2019-04-23T20:36:05.389Z,18.12
2019-04-23T20:38:47.672Z,18.24
2019-04-23T20:41:14.566Z,17.55
2019-04-23T20:43:42.612Z,17.60
2019-04-23T20:46:14.871Z,17.88
2019-04-23T20:48:48.318Z,17.93
2019-04-23T20:51:14.357Z,18.21
2019-04-23T20:53:50.193Z,17.57
2019-04-23T20:56:31.881Z,17.21
2019-04-23T20:59:00.303Z,17.76
2019-04-23T21:01:38.603Z,18.05
2019-04-23T21:04:00.409Z,18.57
2019-04-23T21:06:45.882Z,18.01
2019-04-23T21:11:48.223Z,17.62
2019-04-23T21:14:28.496Z,17.84
2019-04-23T21:19:25.923Z,17.46
2019-04-23T21:22:14.033Z,17.28
2019-04-23T21:24:43.054Z,17.62
2019-04-23T21:27:21.835Z,18.25
2019-04-23T21:29:53.830Z,17.15
2019-04-23T21:32:28.921Z,17.08
2019-04-23T21:34:59.807Z,17.06
2019-04-23T21:37:37.384Z,17.51
2019-04-23T21:40:53.641Z,17.07
2019-04-23T21:43:09.499Z,18.10
2019-04-23T21:45:48.375Z,17.15
2019-04-23T21:48:10.286Z,16.89
2019-04-23T21:50:44.489Z,17.17
2019-04-23T21:53:11.770Z,17.18
2019-04-23T21:55:54.073Z,16.86
2019-04-23T21:58:25.764Z,17.25
2019-04-23T22:00:58.811Z,16.91
2019-04-23T22:03:29.017Z,16.75
2019-04-23T22:06:01.826Z,17.38
2019-04-23T22:08:27.003Z,17.50
2019-04-23T22:11:10.417Z,17.27
2019-04-23T22:16:06.019Z,17.23
2019-04-23T22:18:37.975Z,17.29
2019-04-23T22:21:11.659Z,17.07
2019-04-23T22:23:41.929Z,17.51
2019-04-23T22:28:50.069Z,16.98
2019-04-23T22:32:27.149Z,17.53
2019-04-23T22:33:57.913Z,16.73
2019-04-23T22:36:16.502Z,16.78
2019-04-23T22:38:51.206Z,17.16
2019-04-23T22:41:20.920Z,16.70
2019-04-23T22:44:02.408Z,16.73
2019-04-23T22:46:23.024Z,17.49
2019-04-23T22:49:17.976Z,17.83
2019-04-23T22:51:43.753Z,16.88
2019-04-23T22:56:45.158Z,16.89
2019-04-23T22:59:18.500Z,17.02
2019-04-23T23:01:54.743Z,16.70
2019-04-23T23:11:54.171Z,16.74
2019-04-23T23:14:30.955Z,16.74
2019-04-23T23:16:59.792Z,16.63
2019-04-23T23:19:34.507Z,16.24
2019-04-23T23:22:06.404Z,16.58
2019-04-23T23:24:28.144Z,17.23
2019-04-23T23:27:10.279Z,17.09
2019-04-23T23:29:42.590Z,17.15
2019-04-23T23:32:13.319Z,16.82
2019-04-23T23:34:54.296Z,17.10
2019-04-23T23:37:12.100Z,17.38
2019-04-23T23:40:04.952Z,17.18
2019-04-23T23:47:14.672Z,17.46
2019-04-23T23:49:55.798Z,17.21
2019-04-23T23:52:22.023Z,17.12
2019-04-23T23:54:53.108Z,16.75
